Meny       Hjem   X °F

Select another period ( hide this area )

Units Period Custom range Directly to
Metric English Both
Daily Weekly Monthly Yearly
use both date-selectors for a custom range
previous Day
With this date
Daily Summary for Tuesday 23 April 2024
Time Temp. ( °F ) Dew pt. ( °F ) Wind ( mph ) From Gust ( mph ) Pressure ( in ) Humid.( % ) Rainrate ( in )
High66.0 38.7 7.0 SSE ( 76/162 ) 9.0 30.14 96 -
Average41.8 33.4 1.1 Calm #87/154 1.5 30.10 77 -
Low32.0 30.7 -   0.0 30.08 34 -
Daily Tabular details for Tuesday 23 April 2024
Time Temp. ( °F ) Dew pt. ( °F ) Wind ( mph ) From Gust ( mph ) Pressure ( in ) Humid.( % ) Rainrate ( in )
00:04 38.8 34.2   Calm   30.09 84 -
00:09 38.7 34.3   Calm   30.09 85 -
00:14 38.5 34.3   Calm   30.09 85 -
00:19 38.3 33.8   Calm   30.09 84 -
00:24 38.3 34.2   Calm   30.10 85 -
00:29 38.3 34.0   Calm   30.09 85 -
00:34 38.1 34.0   Calm   30.10 85 -
00:39 37.9 34.0   Calm   30.09 86 -
00:44 37.8 34.0 1.0 SSE 1.0 30.09 87 -
00:49 37.6 34.2   Calm   30.10 88 -
00:54 37.4 34.0 1.0 SSE 1.0 30.09 88 -
00:59 37.2 33.8   Calm 1.0 30.09 88 -
01:04 37.2 33.6   Calm 1.0 30.09 88 -
01:09 37.2 33.6   Calm 1.0 30.09 87 -
01:14 37.8 33.4 1.0 SSE 1.0 30.10 86 -
01:19 38.1 34.0 1.0 SSE 1.0 30.10 85 -
01:24 38.1 34.2   Calm   30.10 87 -
01:29 37.6 34.0   Calm   30.10 88 -
01:34 37.0 33.8   Calm   30.10 89 -
01:39 36.5 33.4   Calm   30.09 89 -
01:44 36.3 33.3   Calm 1.0 30.10 89 -
01:49 36.3 33.3   Calm   30.10 89 -
01:54 36.1 33.1   Calm   30.10 89 -
01:59 36.1 33.1   Calm   30.10 89 -
02:04 36.0 32.9   Calm   30.10 89 -
02:09 36.0 32.9   Calm 1.0 30.09 89 -
02:14 35.8 33.1   Calm   30.09 90 -
02:19 35.8 33.1   Calm   30.09 90 -
02:24 35.6 33.1   Calm 1.0 30.09 91 -
02:29 35.4 33.1   Calm   30.09 91 -
02:34 35.2 32.9   Calm   30.09 91 -
02:39 35.1 32.7   Calm   30.09 91 -
02:44 34.9 32.5   Calm   30.09 91 -
02:49 35.1 32.7   Calm 1.0 30.08 91 -
02:54 35.1 32.7   Calm   30.09 91 -
02:59 34.9 32.5   Calm 1.0 30.09 91 -
03:04 34.7 32.4   Calm 1.0 30.08 91 -
03:09 34.5 32.4   Calm   30.08 92 -
03:14 34.3 32.2   Calm   30.08 92 -
03:19 34.5 32.4   Calm   30.08 92 -
03:24 34.5 32.4   Calm   30.08 92 -
03:29 34.5 32.4   Calm   30.09 92 -
03:34 34.3 32.2   Calm   30.09 92 -
03:39 34.2 32.0   Calm   30.09 92 -
03:44 34.5 32.0 1.0 SSE 1.0 30.09 92 -
03:49 34.7 31.6 1.0 SSE 2.0 30.08 89 -
03:54 34.7 32.2   Calm 1.0 30.08 91 -
03:59 34.3 32.0   Calm   30.08 92 -
04:04 34.0 31.8   Calm   30.09 92 -
04:09 33.8 31.8   Calm   30.09 93 -
04:14 33.8 31.8   Calm 1.0 30.09 93 -
04:19 33.4 31.6   Calm 1.0 30.09 94 -
04:24 33.4 31.6   Calm   30.09 94 -
04:29 33.4 31.6   Calm   30.10 94 -
04:34 33.4 31.6 1.0 SSE 2.0 30.09 94 -
04:39 33.3 31.5 1.0 SSE 1.0 30.10 94 -
04:44 33.1 31.3   Calm 1.0 30.10 94 -
04:49 33.1 31.3 1.0 SSE 1.0 30.10 94 -
04:54 32.9 31.1   Calm   30.10 94 -
04:59 32.9 31.1   Calm   30.10 94 -
05:04 32.9 31.1   Calm   30.10 94 -
05:09 32.9 31.1   Calm   30.10 94 -
05:14 32.9 31.1   Calm   30.10 94 -
05:19 32.9 31.5   Calm   30.10 95 -
05:24 32.7 31.5   Calm   30.10 95 -
05:29 32.5 31.3   Calm   30.10 95 -
05:34 32.5 31.3   Calm   30.10 95 -
05:39 32.4 31.1   Calm   30.11 95 -
05:44 32.4 31.1   Calm 1.0 30.10 95 -
05:49 32.4 31.1   Calm 1.0 30.10 95 -
05:54 32.4 31.1   Calm   30.11 95 -
05:59 32.4 31.1   Calm   30.11 95 -
06:04 32.4 31.1   Calm   30.11 95 -
06:09 32.2 30.9   Calm   30.11 95 -
06:14 32.2 30.9   Calm   30.12 95 -
06:19 32.0 30.7   Calm 1.0 30.12 95 -
06:24 32.0 30.7   Calm 1.0 30.12 95 -
06:29 32.0 30.7   Calm   30.12 95 -
06:34 32.0 30.7   Calm   30.12 95 -
06:39 32.0 30.7   Calm 1.0 30.12 95 -
06:44 32.0 30.7 1.0 SSE 1.0 30.12 95 -
06:49 32.0 30.7 1.0 SSE 1.0 30.12 95 -
06:54 32.2 30.9   Calm   30.12 95 -
06:59 32.2 30.9   Calm   30.13 95 -
07:04 32.0 30.7   Calm 1.0 30.12 95 -
07:09 32.0 30.7   Calm 1.0 30.13 95 -
07:14 32.0 30.7   Calm   30.13 95 -
07:19 32.0 31.1   Calm   30.12 96 -
07:24 32.0 31.1   Calm   30.13 96 -
07:29 32.0 31.1   Calm 1.0 30.13 96 -
07:34 32.2 31.3 1.0 SSE 1.0 30.13 96 -
07:39 32.5 31.6   Calm 1.0 30.13 96 -
07:44 32.9 31.6 1.0 SSE 1.0 30.13 96 -
07:49 33.4 31.6 1.0 SSE 1.0 30.14 94 -
07:54 33.8 31.8 1.0 SSE 1.0 30.13 94 -
07:59 34.9 32.2   Calm 1.0 30.13 90 -
08:04 35.1 32.4   Calm   30.13 90 -
08:09 35.4 32.5   Calm   30.13 90 -
08:14 35.8 32.5   Calm   30.13 89 -
08:19 36.5 32.7   Calm   30.13 87 -
08:24 37.6 33.4   Calm 1.0 30.13 85 -
08:29 38.7 32.9 1.0 SSE 1.0 30.13 83 -
08:34 39.4 32.5 1.0 SSE 1.0 30.13 77 -
08:39 40.1 32.9 1.0 SSE 2.0 30.13 76 -
08:44 40.5 32.5 1.0 SSE 1.0 30.14 73 -
08:49 41.2 33.3 1.0 SSE 1.0 30.14 73 -
08:54 42.3 33.3 1.0 SSE 1.0 30.14 71 -
08:59 43.3 33.6 1.0 SSE 1.0 30.14 70 -
09:04 43.9 33.6 1.0 SSE 1.0 30.14 67 -
09:09 45.0 34.0 1.0 SSE 2.0 30.13 67 -
09:14 45.0 33.8 1.0 SSE 2.0 30.14 65 -
09:19 45.7 33.8 1.0 SSE 1.0 30.14 64 -
09:24 46.6 33.8 1.0 SSE 2.0 30.14 62 -
09:29 47.3 34.3 1.0 SSE 2.0 30.13 61 -
09:34 48.2 34.3 1.0 SSE 1.0 30.13 59 -
09:39 49.1 35.4 1.0 SSE 1.0 30.14 59 -
09:44 50.5 35.8 1.0 SSE 1.0 30.14 59 -
09:49 50.9 35.8 3.0 SSE 3.0 30.13 56 -
09:54 52.0 35.4 1.0 SSE 2.0 30.13 54 -
09:59 52.7 36.5   Calm 1.0 30.13 54 -
10:04 53.8 36.7 1.0 SSE 1.0 30.12 53 -
10:09 54.9 37.0 1.0 SSE 1.0 30.12 52 -
10:14 56.1 37.0 2.0 SSE 2.0 30.12 50 -
10:19 56.7 37.6 1.0 SSE 1.0 30.12 49 -
10:24 57.6 38.7 1.0 SSE 2.0 30.12 49 -
10:29 58.3 37.8 1.0 SSE 2.0 30.12 47 -
10:34 58.5 37.2 2.0 SSE 2.0 30.12 45 -
10:39 59.2 37.8 2.0 SSE 2.0 30.12 46 -
10:44 59.5 37.6 1.0 SSE 2.0 30.12 44 -
10:49 59.7 34.5 3.0 SSE 3.0 30.12 39 -
10:54 60.6 37.4 3.0 SSE 3.0 30.12 42 -
10:59 61.2 37.2 3.0 SSE 3.0 30.12 41 -
11:04 61.3 37.2 4.0 SSE 5.0 30.12 41 -
11:09 61.2 35.2 2.0 SSE 3.0 30.12 38 -
11:14 62.1 36.5 2.0 SSE 2.0 30.12 39 -
11:19 62.4 36.5 3.0 SSE 5.0 30.11 38 -
11:24 62.2 36.3 5.0 SSE 6.0 30.11 38 -
11:29 62.1 36.0 7.0 South 8.0 30.12 38 -
11:34 61.5 36.3 6.0 South 9.0 30.12 39 -
11:39 61.5 36.3 5.0 SE 9.0 30.12 39 -
11:44 62.6 36.3 4.0 SE 5.0 30.11 38 -
11:49 62.6 37.4 5.0 South 7.0 30.12 39 -
11:54 62.6 36.0 4.0 SSE 6.0 30.11 37 -
11:59 62.6 34.5 7.0 South 8.0 30.12 35 -
12:04 62.1 34.5 6.0 WSW 8.0 30.12 36 -
12:09 62.8 35.4 5.0 WSW 6.0 30.11 36 -
12:14 63.5 35.4 7.0 WSW 9.0 30.11 35 -
12:19 63.7 36.3 4.0 WNW 9.0 30.11 36 -
12:24 64.2 36.0 4.0 East 6.0 30.11 35 -
12:29 64.4 36.0 5.0 ENE 6.0 30.11 35 -
12:34 64.9 36.0 3.0 NE 5.0 30.11 34 -
12:39 64.9 35.6 5.0 NE 6.0 30.10 34 -
12:44 65.8 37.0 6.0 West 7.0 30.10 35 -
12:49 66.0 37.2 7.0 SE 9.0 30.10 35 -

Download your copy of this data-set  from WeatherUnderground

Our weather-data as stored at Weather Underground

Original Weather Page

My Ham Radio Page